createdAt,value
2019-01-24T00:00:33.170Z,53.07
2019-01-24T00:03:01.967Z,51.00
2019-01-24T00:05:30.477Z,50.53
2019-01-24T00:07:59.133Z,48.63
2019-01-24T00:10:27.997Z,48.00
2019-01-24T00:12:56.425Z,48.27
2019-01-24T00:15:25.039Z,44.97
2019-01-24T00:17:53.839Z,45.20
2019-01-24T00:20:22.351Z,47.43
2019-01-24T00:22:51.320Z,41.87
2019-01-24T00:25:21.642Z,43.40
2019-01-24T00:27:50.091Z,43.07
2019-01-24T00:30:19.013Z,44.60
2019-01-24T00:32:48.619Z,44.73
2019-01-24T00:35:20.497Z,43.57
2019-01-24T00:37:49.962Z,42.47
2019-01-24T00:40:20.456Z,40.10
2019-01-24T00:42:49.051Z,41.30
2019-01-24T00:45:17.740Z,40.93
2019-01-24T00:47:46.438Z,40.40
2019-01-24T00:50:16.198Z,38.03
2019-01-24T00:52:44.780Z,38.77
2019-01-24T00:55:16.666Z,41.57
2019-01-24T00:57:45.183Z,40.63
2019-01-24T01:00:19.194Z,41.80
2019-01-24T01:02:47.797Z,40.33
2019-01-24T01:05:16.748Z,39.33
2019-01-24T01:07:45.361Z,37.20
2019-01-24T01:10:14.846Z,35.23
2019-01-24T01:12:43.423Z,37.03
2019-01-24T01:15:17.768Z,34.70
2019-01-24T01:17:46.936Z,36.40
2019-01-24T01:20:17.941Z,32.57
2019-01-24T01:22:46.461Z,34.33
2019-01-24T01:25:15.704Z,32.87
2019-01-24T01:27:44.576Z,31.13
2019-01-24T01:30:16.299Z,32.00
2019-01-24T01:32:45.005Z,29.83
2019-01-24T01:35:13.797Z,29.73
2019-01-24T01:37:42.230Z,29.03
2019-01-24T01:40:13.526Z,28.53
2019-01-24T01:42:41.958Z,30.00
2019-01-24T01:45:15.764Z,28.53
2019-01-24T01:47:44.251Z,29.20
2019-01-24T01:50:15.823Z,26.83
2019-01-24T01:52:44.267Z,25.83
2019-01-24T01:55:13.334Z,26.70
2019-01-24T01:57:41.861Z,24.63
2019-01-24T02:00:13.389Z,24.67
2019-01-24T02:02:41.911Z,25.70
2019-01-24T02:05:11.702Z,24.73
2019-01-24T02:07:40.233Z,23.60
2019-01-24T02:10:12.095Z,24.43
2019-01-24T02:12:40.541Z,23.80
2019-01-24T02:15:13.971Z,25.93
2019-01-24T02:17:42.600Z,25.23
2019-01-24T02:20:14.464Z,24.27
2019-01-24T02:22:43.147Z,23.50
2019-01-24T02:25:11.929Z,24.10
2019-01-24T02:27:40.513Z,24.23
2019-01-24T02:30:14.740Z,25.13
2019-01-24T02:32:43.399Z,23.90
2019-01-24T02:35:12.075Z,24.23
2019-01-24T02:37:40.611Z,24.13
2019-01-24T02:40:10.300Z,25.33
2019-01-24T02:42:38.790Z,25.90
2019-01-24T02:45:10.643Z,23.57
2019-01-24T02:47:39.097Z,24.33
2019-01-24T02:50:13.838Z,25.17
2019-01-24T02:52:42.278Z,25.33
2019-01-24T02:55:13.449Z,25.60
2019-01-24T02:57:41.913Z,23.53
2019-01-24T03:00:16.370Z,24.23
2019-01-24T03:02:44.845Z,26.10
2019-01-24T03:05:16.396Z,24.43
2019-01-24T03:07:44.857Z,24.87
2019-01-24T03:10:14.830Z,24.43
2019-01-24T03:12:43.433Z,23.37
2019-01-24T03:15:17.229Z,24.73
2019-01-24T03:17:45.786Z,24.90
2019-01-24T03:20:16.762Z,24.47
2019-01-24T03:22:45.654Z,24.13
2019-01-24T03:25:16.121Z,24.97
2019-01-24T03:27:44.651Z,24.40
2019-01-24T03:30:18.455Z,24.77
2019-01-24T03:32:47.046Z,24.43
2019-01-24T03:35:18.521Z,24.13
2019-01-24T03:37:47.373Z,23.50
2019-01-24T03:40:17.456Z,23.53
2019-01-24T03:42:45.970Z,24.33
2019-01-24T03:45:16.874Z,24.60
2019-01-24T03:47:45.700Z,23.20
2019-01-24T03:50:16.487Z,23.43
2019-01-24T03:52:45.123Z,22.43
2019-01-24T03:55:15.407Z,23.20
2019-01-24T03:57:43.851Z,22.23
2019-01-24T04:00:17.859Z,23.83
2019-01-24T04:02:46.382Z,21.60
2019-01-24T04:05:14.935Z,22.53
2019-01-24T04:07:43.473Z,21.77
2019-01-24T04:10:14.902Z,22.53
2019-01-24T04:12:43.509Z,22.40
2019-01-24T04:15:14.796Z,21.97
2019-01-24T04:17:43.378Z,23.43
2019-01-24T04:20:12.581Z,21.20
2019-01-24T04:22:41.138Z,23.83
2019-01-24T04:25:09.820Z,22.63
2019-01-24T04:27:38.372Z,21.60
2019-01-24T04:30:12.666Z,22.83
2019-01-24T04:32:41.109Z,22.77
2019-01-24T04:35:10.904Z,21.63
2019-01-24T04:37:39.351Z,22.97
2019-01-24T04:40:10.739Z,21.47
2019-01-24T04:42:39.236Z,22.90
2019-01-24T04:45:10.790Z,23.13
2019-01-24T04:47:39.249Z,20.47
2019-01-24T04:50:10.856Z,21.53
2019-01-24T04:52:39.279Z,23.10
2019-01-24T04:55:10.502Z,23.50
2019-01-24T04:57:38.954Z,26.73
2019-01-24T05:00:22.465Z,22.93
2019-01-24T05:02:51.091Z,24.03
2019-01-24T05:05:27.185Z,23.37
2019-01-24T05:07:50.141Z,23.67
2019-01-24T05:10:18.683Z,25.27
2019-01-24T05:12:47.218Z,22.30
2019-01-24T05:15:16.395Z,23.77
2019-01-24T05:17:44.848Z,23.73
2019-01-24T05:20:14.226Z,24.47
2019-01-24T05:22:42.748Z,23.37
2019-01-24T05:25:13.803Z,25.17
2019-01-24T05:27:42.343Z,23.17
2019-01-24T05:30:16.857Z,24.17
2019-01-24T05:32:46.897Z,22.37
2019-01-24T05:35:15.517Z,23.63
2019-01-24T05:37:43.998Z,24.53
2019-01-24T05:40:12.702Z,23.17
2019-01-24T05:42:41.281Z,23.43
2019-01-24T05:45:12.492Z,23.73
2019-01-24T05:47:40.932Z,22.97
2019-01-24T05:50:11.402Z,23.73
2019-01-24T05:52:39.831Z,24.87
2019-01-24T05:55:10.428Z,25.17
2019-01-24T05:57:38.860Z,24.63
2019-01-24T06:00:17.642Z,25.10
2019-01-24T06:02:46.481Z,24.17
2019-01-24T06:05:15.745Z,25.43
2019-01-24T06:07:44.186Z,24.53
2019-01-24T06:10:17.247Z,24.20
2019-01-24T06:12:45.697Z,22.93
2019-01-24T06:15:18.530Z,25.53
2019-01-24T06:17:47.302Z,23.93
2019-01-24T06:20:15.952Z,25.20
2019-01-24T06:22:44.383Z,25.17
2019-01-24T06:25:14.700Z,24.00
2019-01-24T06:27:43.242Z,23.60
2019-01-24T06:30:17.625Z,24.77
2019-01-24T06:32:46.065Z,26.00
2019-01-24T06:35:14.640Z,24.80
2019-01-24T06:37:43.242Z,25.27
2019-01-24T06:40:13.749Z,23.47
2019-01-24T06:42:42.172Z,23.57
2019-01-24T06:45:13.548Z,24.37
2019-01-24T06:47:42.093Z,26.57
2019-01-24T06:50:12.942Z,27.83
2019-01-24T06:52:41.396Z,26.70
2019-01-24T06:55:13.242Z,26.70
2019-01-24T06:57:41.733Z,26.80
2019-01-24T07:00:13.512Z,28.93
2019-01-24T07:02:42.007Z,26.90
2019-01-24T07:05:11.111Z,27.60
2019-01-24T07:07:39.624Z,28.43
2019-01-24T07:10:16.653Z,25.90
2019-01-24T07:12:45.086Z,26.13
2019-01-24T07:15:16.205Z,27.50
2019-01-24T07:17:44.710Z,26.57
2019-01-24T07:20:15.238Z,27.77
2019-01-24T07:22:43.865Z,26.93
2019-01-24T07:25:18.254Z,26.43
2019-01-24T07:27:46.721Z,25.27
2019-01-24T07:30:17.776Z,26.43
2019-01-24T07:32:46.300Z,25.10
2019-01-24T07:35:16.623Z,26.03
2019-01-24T07:37:45.406Z,25.20
2019-01-24T07:40:16.554Z,24.47
2019-01-24T07:42:45.074Z,23.80
2019-01-24T07:45:22.349Z,25.73
2019-01-24T07:47:50.781Z,26.47
2019-01-24T07:50:19.218Z,24.73
2019-01-24T07:52:47.866Z,25.33
2019-01-24T07:55:16.454Z,23.23
2019-01-24T07:57:45.257Z,23.90
2019-01-24T08:00:27.438Z,23.20
2019-01-24T08:02:55.977Z,23.07
2019-01-24T08:05:26.047Z,22.13
2019-01-24T08:07:54.645Z,22.90
2019-01-24T08:10:25.373Z,22.27
2019-01-24T08:12:56.958Z,22.73
2019-01-24T08:15:25.566Z,23.17
2019-01-24T08:17:54.158Z,28.90
2019-01-24T08:20:24.592Z,24.60
2019-01-24T08:22:53.486Z,24.47
2019-01-24T08:25:22.009Z,24.23
2019-01-24T08:27:50.519Z,25.67
2019-01-24T08:30:29.885Z,25.97
2019-01-24T08:32:58.410Z,27.13
2019-01-24T08:35:27.090Z,25.07
2019-01-24T08:37:55.737Z,24.53
2019-01-24T08:40:25.221Z,27.07
2019-01-24T08:42:53.915Z,25.10
2019-01-24T08:45:22.621Z,24.67
2019-01-24T08:47:51.248Z,26.73
2019-01-24T08:50:24.833Z,25.67
2019-01-24T08:52:53.568Z,25.27
2019-01-24T08:55:25.051Z,27.67
2019-01-24T08:57:53.577Z,26.27
2019-01-24T09:00:22.669Z,27.23
2019-01-24T09:02:52.188Z,26.93
2019-01-24T09:05:20.868Z,27.00
2019-01-24T09:07:49.497Z,27.03
2019-01-24T09:10:20.962Z,27.23
2019-01-24T09:12:49.738Z,27.03
2019-01-24T09:15:18.365Z,26.23
2019-01-24T09:17:47.046Z,26.97
2019-01-24T09:20:17.755Z,32.70
2019-01-24T09:22:46.450Z,30.20
2019-01-24T09:25:15.150Z,27.83
2019-01-24T09:27:43.824Z,30.23
2019-01-24T09:30:18.118Z,29.97
2019-01-24T09:32:46.688Z,32.57
2019-01-24T09:35:15.526Z,27.43
2019-01-24T09:37:44.915Z,28.17
2019-01-24T09:40:18.782Z,27.63
2019-01-24T09:42:47.290Z,27.00
2019-01-24T09:45:18.464Z,25.50
2019-01-24T09:47:47.155Z,26.57
2019-01-24T09:50:21.175Z,27.00
2019-01-24T09:52:49.645Z,25.73
2019-01-24T09:55:18.218Z,27.47
2019-01-24T09:57:46.815Z,25.67
2019-01-24T10:00:20.694Z,26.77
2019-01-24T10:02:49.331Z,26.47
2019-01-24T10:05:18.501Z,25.67
2019-01-24T10:07:47.311Z,26.37
2019-01-24T10:10:18.364Z,24.97
2019-01-24T10:12:46.903Z,27.17
2019-01-24T10:15:17.359Z,29.07
2019-01-24T10:17:46.438Z,27.10
2019-01-24T10:20:16.819Z,25.70
2019-01-24T10:22:45.272Z,25.83
2019-01-24T10:25:19.520Z,24.37
2019-01-24T10:27:48.048Z,27.73
2019-01-24T10:30:21.594Z,25.80
2019-01-24T10:32:50.196Z,25.27
2019-01-24T10:35:18.787Z,25.87
2019-01-24T10:37:47.291Z,27.03
2019-01-24T10:40:24.306Z,26.70
2019-01-24T10:42:52.880Z,28.00
2019-01-24T10:45:22.581Z,28.00
2019-01-24T10:47:52.592Z,27.37
2019-01-24T10:50:25.940Z,26.43
2019-01-24T10:52:55.189Z,26.87
2019-01-24T10:55:25.273Z,25.53
2019-01-24T10:57:54.752Z,26.40
2019-01-24T11:00:29.123Z,27.10
2019-01-24T11:02:57.908Z,27.20
2019-01-24T11:05:26.541Z,24.97
2019-01-24T11:07:55.049Z,26.23
2019-01-24T11:10:23.852Z,25.77
2019-01-24T11:12:52.719Z,25.97
2019-01-24T11:15:23.529Z,26.90
2019-01-24T11:17:52.156Z,27.67
2019-01-24T11:20:21.521Z,27.37
2019-01-24T11:22:50.609Z,27.07
2019-01-24T11:25:22.001Z,28.43
2019-01-24T11:27:50.972Z,25.73
2019-01-24T11:30:28.477Z,26.20
2019-01-24T11:32:57.091Z,24.47
2019-01-24T11:35:34.245Z,26.87
2019-01-24T11:38:02.683Z,27.87
2019-01-24T11:40:31.474Z,26.37
2019-01-24T11:43:00.153Z,25.57
2019-01-24T11:45:31.882Z,26.67
2019-01-24T11:48:00.327Z,26.50
2019-01-24T11:50:28.776Z,29.77
2019-01-24T11:52:57.256Z,26.53
2019-01-24T11:55:25.678Z,27.30
2019-01-24T11:57:54.132Z,26.77
2019-01-24T12:00:33.224Z,26.60
2019-01-24T12:03:01.729Z,26.57
2019-01-24T12:05:30.413Z,27.93
2019-01-24T12:07:58.832Z,29.47
2019-01-24T12:10:29.672Z,27.20
2019-01-24T12:12:58.175Z,28.37
2019-01-24T12:15:29.073Z,26.47
2019-01-24T12:17:57.494Z,27.83
2019-01-24T12:20:27.090Z,23.67
2019-01-24T12:22:55.654Z,27.57
2019-01-24T12:25:24.430Z,25.93
2019-01-24T12:27:53.145Z,27.70
2019-01-24T12:30:27.050Z,26.53
2019-01-24T12:32:55.923Z,28.20
2019-01-24T12:35:24.656Z,27.00
2019-01-24T12:37:53.187Z,27.87
2019-01-24T12:40:21.720Z,26.70
2019-01-24T12:42:50.242Z,28.20
2019-01-24T12:45:33.676Z,28.40
2019-01-24T12:48:02.259Z,25.43
2019-01-24T12:50:30.704Z,25.80
2019-01-24T12:52:59.218Z,26.30
2019-01-24T12:55:27.814Z,27.20
2019-01-24T12:57:56.346Z,26.80
2019-01-24T13:00:27.642Z,28.67
2019-01-24T13:02:56.087Z,28.43
2019-01-24T13:05:24.677Z,28.90
2019-01-24T13:07:54.467Z,27.40
2019-01-24T13:10:24.939Z,26.20
2019-01-24T13:12:53.367Z,26.27
2019-01-24T13:15:27.373Z,28.57
2019-01-24T13:17:55.819Z,26.50
2019-01-24T13:20:24.283Z,27.47
2019-01-24T13:22:52.848Z,27.47
2019-01-24T13:25:24.204Z,26.13
2019-01-24T13:27:52.636Z,26.97
2019-01-24T13:30:23.653Z,28.30
2019-01-24T13:32:52.177Z,31.00
2019-01-24T13:35:20.834Z,28.53
2019-01-24T13:37:49.353Z,28.20
2019-01-24T13:40:22.593Z,27.27
2019-01-24T13:42:51.104Z,28.23
2019-01-24T13:45:22.451Z,28.10
2019-01-24T13:47:50.966Z,29.13
2019-01-24T13:50:20.307Z,27.03
2019-01-24T13:52:48.757Z,28.37
2019-01-24T13:55:17.269Z,28.57
2019-01-24T13:57:45.735Z,29.63
2019-01-24T14:00:22.623Z,27.50
2019-01-24T14:02:54.084Z,26.30
2019-01-24T14:05:22.551Z,28.17
2019-01-24T14:07:50.992Z,29.50
2019-01-24T14:10:19.869Z,28.07
2019-01-24T14:12:48.309Z,28.17
2019-01-24T14:15:18.808Z,28.20
2019-01-24T14:17:47.351Z,28.67
2019-01-24T14:20:20.203Z,28.67
2019-01-24T14:22:48.886Z,30.13
2019-01-24T14:25:19.071Z,28.87
2019-01-24T14:27:48.077Z,29.00
2019-01-24T14:30:19.592Z,28.70
2019-01-24T14:32:48.214Z,27.27
2019-01-24T14:35:16.696Z,26.93
2019-01-24T14:37:45.236Z,25.80
2019-01-24T14:40:15.135Z,26.70
2019-01-24T14:42:43.681Z,26.27
2019-01-24T14:45:14.929Z,26.80
2019-01-24T14:47:43.437Z,27.17
2019-01-24T14:50:17.936Z,25.67
2019-01-24T14:52:46.382Z,25.37
2019-01-24T14:55:14.995Z,24.80
2019-01-24T14:57:43.517Z,24.27
2019-01-24T15:00:20.554Z,24.63
2019-01-24T15:02:49.076Z,26.93
2019-01-24T15:05:17.502Z,25.60
2019-01-24T15:07:47.490Z,26.17
2019-01-24T15:10:16.616Z,26.17
2019-01-24T15:12:45.092Z,25.07
2019-01-24T15:15:15.371Z,25.00
2019-01-24T15:17:43.895Z,25.03
2019-01-24T15:20:14.681Z,24.57
2019-01-24T15:22:43.202Z,23.77
2019-01-24T15:25:14.015Z,24.60
2019-01-24T15:27:42.460Z,22.53
2019-01-24T15:30:13.982Z,24.13
2019-01-24T15:32:42.439Z,22.90
2019-01-24T15:35:11.089Z,23.43
2019-01-24T15:37:39.826Z,23.47
2019-01-24T15:40:22.653Z,22.20
2019-01-24T15:42:51.203Z,22.80
2019-01-24T15:45:20.129Z,23.47
2019-01-24T15:47:49.247Z,23.97
2019-01-24T15:50:19.952Z,23.30
2019-01-24T15:52:49.065Z,22.87
2019-01-24T15:55:17.578Z,23.13
2019-01-24T15:57:46.265Z,21.37
2019-01-24T16:00:23.416Z,22.37
2019-01-24T16:02:51.957Z,22.53
2019-01-24T16:05:20.851Z,20.93
2019-01-24T16:07:49.372Z,22.20
2019-01-24T16:10:20.280Z,23.30
2019-01-24T16:12:49.056Z,21.63
2019-01-24T16:15:23.137Z,22.23
2019-01-24T16:17:51.642Z,21.90
2019-01-24T16:20:22.759Z,22.63
2019-01-24T16:22:51.270Z,22.03
2019-01-24T16:25:22.059Z,22.63
2019-01-24T16:27:52.044Z,21.67
2019-01-24T16:30:22.722Z,21.97
2019-01-24T16:32:51.386Z,21.33
2019-01-24T16:35:20.891Z,22.30
2019-01-24T16:37:49.322Z,20.70
2019-01-24T16:40:19.967Z,22.97
2019-01-24T16:42:48.492Z,21.83
2019-01-24T16:45:21.861Z,22.00
2019-01-24T16:47:50.282Z,23.20
2019-01-24T16:50:20.849Z,22.53
2019-01-24T16:52:49.428Z,21.83
2019-01-24T16:55:18.621Z,23.00
2019-01-24T16:57:49.251Z,22.43
2019-01-24T17:00:20.833Z,22.60
2019-01-24T17:02:49.384Z,22.77
2019-01-24T17:05:17.890Z,23.67
2019-01-24T17:07:46.345Z,22.70
2019-01-24T17:10:17.895Z,22.83
2019-01-24T17:12:46.360Z,23.70
2019-01-24T17:15:17.255Z,23.27
2019-01-24T17:17:46.147Z,22.50
2019-01-24T17:20:20.238Z,22.43
2019-01-24T17:22:48.765Z,22.00
2019-01-24T17:25:17.738Z,22.63
2019-01-24T17:27:46.592Z,24.10
2019-01-24T17:30:23.998Z,22.40
2019-01-24T17:32:52.781Z,24.17
2019-01-24T17:35:21.866Z,22.63
2019-01-24T17:37:50.396Z,23.63
2019-01-24T17:40:33.131Z,22.47
2019-01-24T17:43:01.978Z,20.93
2019-01-24T17:45:32.095Z,22.57
2019-01-24T17:48:00.787Z,22.20
2019-01-24T17:50:29.222Z,22.57
2019-01-24T17:52:57.689Z,22.60
2019-01-24T17:55:32.010Z,22.90
2019-01-24T17:58:00.464Z,23.67
2019-01-24T18:00:30.623Z,22.33
2019-01-24T18:02:59.129Z,24.20
2019-01-24T18:05:27.751Z,23.93
2019-01-24T18:07:56.198Z,23.30
2019-01-24T18:10:29.636Z,23.83
2019-01-24T18:12:58.138Z,23.10
2019-01-24T18:15:31.924Z,22.53
2019-01-24T18:18:01.311Z,24.67
2019-01-24T18:20:34.979Z,25.13
2019-01-24T18:23:04.288Z,24.10
2019-01-24T18:25:33.119Z,22.70
2019-01-24T18:28:01.554Z,25.47
2019-01-24T18:30:30.671Z,23.73
2019-01-24T18:32:59.248Z,23.80
2019-01-24T18:35:27.759Z,24.00
2019-01-24T18:37:56.216Z,23.80
2019-01-24T18:40:26.915Z,22.70
2019-01-24T18:42:56.101Z,23.63
2019-01-24T18:45:36.580Z,23.53
2019-01-24T18:48:06.178Z,22.97
2019-01-24T18:50:34.776Z,22.87
2019-01-24T18:53:03.414Z,23.73
2019-01-24T18:55:31.902Z,24.07
2019-01-24T18:58:00.433Z,25.10
2019-01-24T19:00:36.731Z,25.60
2019-01-24T19:03:06.756Z,24.30
2019-01-24T19:05:35.268Z,26.57
2019-01-24T19:08:04.145Z,24.70
2019-01-24T19:10:32.760Z,26.10
2019-01-24T19:13:01.279Z,24.93
2019-01-24T19:15:29.947Z,24.93
2019-01-24T19:17:59.338Z,24.27
2019-01-24T19:20:27.869Z,26.70
2019-01-24T19:22:56.355Z,24.13
2019-01-24T19:25:24.920Z,26.40
2019-01-24T19:27:53.481Z,25.63
2019-01-24T19:30:27.416Z,27.00
2019-01-24T19:32:56.232Z,26.50
2019-01-24T19:35:24.782Z,25.27
2019-01-24T19:37:53.286Z,24.30
2019-01-24T19:40:25.728Z,25.93
2019-01-24T19:42:54.582Z,26.97
2019-01-24T19:45:27.416Z,27.30
2019-01-24T19:47:56.266Z,25.60
2019-01-24T19:50:29.474Z,26.30
2019-01-24T19:52:58.951Z,27.27
2019-01-24T19:55:27.686Z,27.70
2019-01-24T19:57:56.996Z,26.00
2019-01-24T20:00:27.764Z,28.17
2019-01-24T20:02:56.519Z,27.00
2019-01-24T20:05:25.533Z,27.50
2019-01-24T20:07:54.476Z,27.67
2019-01-24T20:10:31.101Z,28.17
2019-01-24T20:12:59.981Z,29.43
2019-01-24T20:15:30.829Z,29.27
2019-01-24T20:17:59.976Z,27.43
2019-01-24T20:20:29.350Z,28.43
2019-01-24T20:22:57.892Z,26.87
2019-01-24T20:25:28.552Z,26.27
2019-01-24T20:27:57.378Z,27.57
2019-01-24T20:30:28.945Z,29.57
2019-01-24T20:32:58.450Z,28.90
2019-01-24T20:35:29.622Z,30.33
2019-01-24T20:37:58.147Z,29.90
2019-01-24T20:40:26.907Z,28.37
2019-01-24T20:42:55.422Z,29.97
2019-01-24T20:45:23.892Z,30.13
2019-01-24T20:47:52.373Z,31.10
2019-01-24T20:50:20.912Z,29.70
2019-01-24T20:52:49.709Z,28.90
2019-01-24T20:55:18.228Z,30.23
2019-01-24T20:57:46.742Z,31.80
2019-01-24T21:00:18.308Z,30.03
2019-01-24T21:02:47.247Z,28.87
2019-01-24T21:05:18.215Z,31.47
2019-01-24T21:07:46.876Z,29.50
2019-01-24T21:10:21.077Z,29.77
2019-01-24T21:12:49.835Z,29.57
2019-01-24T21:15:20.299Z,28.10
2019-01-24T21:17:49.064Z,29.00
2019-01-24T21:20:20.276Z,29.17
2019-01-24T21:22:48.990Z,29.17
2019-01-24T21:25:20.042Z,28.90
2019-01-24T21:27:48.886Z,29.17
2019-01-24T21:30:29.477Z,32.23
2019-01-24T21:32:58.336Z,29.57
2019-01-24T21:35:27.127Z,29.07
2019-01-24T21:37:55.687Z,30.17
2019-01-24T21:40:25.302Z,29.27
2019-01-24T21:42:53.941Z,30.00
2019-01-24T21:45:31.005Z,29.40
2019-01-24T21:47:59.649Z,30.23
2019-01-24T21:50:30.570Z,29.83
2019-01-24T21:52:59.130Z,29.83
2019-01-24T21:55:27.785Z,28.70
2019-01-24T21:57:56.520Z,30.33
2019-01-24T22:00:29.719Z,29.77
2019-01-24T22:02:58.756Z,30.67
2019-01-24T22:05:27.620Z,29.63
2019-01-24T22:07:56.540Z,30.10
2019-01-24T22:10:30.279Z,29.20
2019-01-24T22:12:59.104Z,31.17
2019-01-24T22:15:30.538Z,30.70
2019-01-24T22:17:59.794Z,32.00
2019-01-24T22:20:28.463Z,31.77
2019-01-24T22:22:56.945Z,31.23
2019-01-24T22:25:31.118Z,29.37
2019-01-24T22:27:59.835Z,30.80
2019-01-24T22:30:38.780Z,30.27
2019-01-24T22:33:07.991Z,30.40
2019-01-24T22:35:36.530Z,29.77
2019-01-24T22:38:07.438Z,32.27
2019-01-24T22:40:36.232Z,30.67
2019-01-24T22:43:05.581Z,30.93
2019-01-24T22:45:34.170Z,32.10
2019-01-24T22:48:02.835Z,30.87
2019-01-24T22:50:31.318Z,29.43
2019-01-24T22:52:59.845Z,31.07
2019-01-24T22:55:28.352Z,31.30
2019-01-24T22:57:56.818Z,30.00
2019-01-24T23:00:36.025Z,29.57
2019-01-24T23:03:05.176Z,31.57
2019-01-24T23:05:33.879Z,30.83
2019-01-24T23:08:02.426Z,29.73
2019-01-24T23:10:30.916Z,31.33
2019-01-24T23:12:59.729Z,30.50
2019-01-24T23:15:28.188Z,29.63
2019-01-24T23:17:56.720Z,29.63
2019-01-24T23:20:25.309Z,28.53
2019-01-24T23:22:53.766Z,30.23
2019-01-24T23:25:22.246Z,30.37
2019-01-24T23:27:50.697Z,29.43
2019-01-24T23:30:19.420Z,30.30
2019-01-24T23:32:47.868Z,29.43
2019-01-24T23:35:16.429Z,30.93
2019-01-24T23:37:45.056Z,30.40
2019-01-24T23:40:14.000Z,31.63
2019-01-24T23:42:42.464Z,29.30
2019-01-24T23:45:11.981Z,30.50
2019-01-24T23:47:40.628Z,28.60
2019-01-24T23:50:09.437Z,30.50
2019-01-24T23:52:37.904Z,28.23
2019-01-24T23:55:07.343Z,28.57
2019-01-24T23:57:35.826Z,31.33
